Time;durP1;ratioP1;P1;durP2;ratioP2;P2;SDS_P1;SDS_P2;PMS_P1;PMS_P2;Temp;Humidity;BMP_temperature;BMP_pressure;BME280_temperature;BME280_humidity;BME280_pressure;Samples;Min_cycle;Max_cycle;Signal;HPM_P1;HPM_P2
2022/05/11 00:00:15;;;;;;;5.20;1.75;;;18.00;91.70;;;;;;5103969;28;20456;-42
2022/05/11 00:02:41;;;;;;;3.30;1.90;;;18.00;91.80;;;;;;5089485;28;20094;-41
2022/05/11 00:05:09;;;;;;;4.82;1.85;;;17.90;91.80;;;;;;5091791;28;20852;-42
2022/05/11 00:07:35;;;;;;;4.85;2.00;;;18.00;91.90;;;;;;5098116;28;20063;-40
2022/05/11 00:10:02;;;;;;;2.50;1.95;;;17.90;92.00;;;;;;5089929;28;20043;-39
2022/05/11 00:12:28;;;;;;;2.85;1.70;;;17.90;92.10;;;;;;5086235;28;20020;-41
2022/05/11 00:14:53;;;;;;;2.13;1.77;;;17.90;92.10;;;;;;5108268;28;20024;-41
2022/05/11 00:17:19;;;;;;;2.83;1.85;;;17.90;92.20;;;;;;5097002;28;20019;-42
2022/05/11 00:19:45;;;;;;;3.05;1.63;;;17.90;92.20;;;;;;5108702;28;20031;-42
2022/05/11 00:22:10;;;;;;;2.90;1.83;;;17.90;92.20;;;;;;5096857;28;20131;-42
2022/05/11 00:24:36;;;;;;;3.03;1.60;;;17.90;92.20;;;;;;5108239;28;20100;-42
2022/05/11 00:27:02;;;;;;;2.55;1.70;;;17.90;92.30;;;;;;5096154;28;20425;-42
2022/05/11 00:29:30;;;;;;;3.55;2.05;;;17.90;92.30;;;;;;5108505;28;20409;-42
2022/05/11 00:31:56;;;;;;;2.22;1.70;;;17.90;92.40;;;;;;5097139;28;20038;-41
2022/05/11 00:34:22;;;;;;;2.08;1.88;;;17.90;92.50;;;;;;5107496;28;20020;-41
2022/05/11 00:36:47;;;;;;;2.65;1.70;;;17.90;92.50;;;;;;5099487;28;20122;-42
2022/05/11 00:39:13;;;;;;;1.95;1.73;;;17.90;92.50;;;;;;5104096;28;20032;-42
2022/05/11 00:41:42;;;;;;;2.28;1.83;;;17.90;92.60;;;;;;5102147;28;20039;-42
2022/05/11 00:44:09;;;;;;;2.85;1.65;;;17.90;92.60;;;;;;5101368;28;20142;-43
2022/05/11 00:46:50;;;;;;;4.13;1.90;;;17.90;92.60;;;;;;5103267;28;20098;-42
2022/05/11 00:49:35;;;;;;;1.70;1.60;;;17.90;92.60;;;;;;5101710;28;20062;-41
2022/05/11 00:52:08;;;;;;;1.65;1.50;;;17.90;92.60;;;;;;5102017;28;20031;-41
2022/05/11 00:54:38;;;;;;;2.15;1.70;;;17.90;92.70;;;;;;5102674;28;20024;-42
2022/05/11 00:57:10;;;;;;;2.80;1.70;;;17.90;92.80;;;;;;5102731;28;20103;-42
2022/05/11 00:59:41;;;;;;;3.05;1.88;;;17.90;92.80;;;;;;5100571;28;20084;-42
2022/05/11 01:02:06;;;;;;;3.22;1.95;;;17.80;92.90;;;;;;5103211;28;20035;-41
2022/05/11 01:04:39;;;;;;;1.90;1.80;;;17.80;93.00;;;;;;5098900;28;20379;-41
2022/05/11 01:07:08;;;;;;;4.43;1.98;;;17.80;93.10;;;;;;5104932;28;20161;-42
2022/05/11 01:09:33;;;;;;;2.97;1.70;;;17.80;93.20;;;;;;5098215;28;20019;-41
2022/05/11 01:12:01;;;;;;;2.58;1.58;;;17.80;93.20;;;;;;5106866;28;20034;-42
2022/05/11 01:14:31;;;;;;;2.83;1.90;;;17.70;93.20;;;;;;5095528;28;20039;-39
2022/05/11 01:16:58;;;;;;;2.25;2.05;;;17.70;93.20;;;;;;5107233;28;20024;-41
2022/05/11 01:19:28;;;;;;;1.70;1.60;;;17.60;93.20;;;;;;5096318;28;20035;-42
2022/05/11 01:22:03;;;;;;;4.45;1.90;;;17.60;93.30;;;;;;5106677;28;20036;-43
2022/05/11 01:24:41;;;;;;;3.25;2.00;;;17.60;93.30;;;;;;5095222;28;20016;-42
2022/05/11 01:27:28;;;;;;;2.95;2.10;;;17.60;93.40;;;;;;5088309;28;20044;-42
2022/05/11 01:29:56;;;;;;;3.60;2.17;;;17.50;93.40;;;;;;5097608;28;20050;-41
2022/05/11 01:32:23;;;;;;;3.63;2.10;;;17.50;93.50;;;;;;5088362;28;20059;-42
2022/05/11 01:34:54;;;;;;;2.25;2.00;;;17.50;93.50;;;;;;5097789;28;20024;-43
2022/05/11 01:37:19;;;;;;;3.85;2.10;;;17.50;93.50;;;;;;5087808;28;20020;-41
2022/05/11 01:39:45;;;;;;;3.85;2.40;;;17.50;93.50;;;;;;5099033;28;20023;-42
2022/05/11 01:42:12;;;;;;;1.65;1.55;;;17.50;93.50;;;;;;5086804;28;20063;-41
2022/05/11 01:44:37;;;;;;;3.78;2.20;;;17.50;93.40;;;;;;5099578;28;20480;-42
2022/05/11 01:47:03;;;;;;;1.95;1.70;;;17.50;93.40;;;;;;5087154;28;20024;-42
2022/05/11 01:49:29;;;;;;;2.17;2.00;;;17.40;93.40;;;;;;5096771;28;20036;-40
2022/05/11 01:51:55;;;;;;;2.88;2.35;;;17.40;93.40;;;;;;5088729;28;20107;-42
2022/05/11 01:54:20;;;;;;;2.55;2.35;;;17.50;93.50;;;;;;5094759;28;20115;-42
2022/05/11 01:56:46;;;;;;;2.78;2.45;;;17.40;93.50;;;;;;5090371;28;20017;-42
2022/05/11 01:59:11;;;;;;;2.63;2.42;;;17.50;93.50;;;;;;5092937;28;20382;-40
2022/05/11 02:01:40;;;;;;;4.25;2.17;;;17.50;93.50;;;;;;5098364;28;20188;-39
2022/05/11 02:07:49;;;;;;;3.05;2.40;;;17.50;93.50;;;;;;5102252;28;20059;-41
2022/05/11 02:09:37;;;;;;;2.90;2.20;;;17.40;93.50;;;;;;5099368;28;20491;-42
2022/05/11 02:12:03;;;;;;;2.78;2.47;;;17.50;93.40;;;;;;5100502;28;20028;-38
2022/05/11 02:14:29;;;;;;;2.50;2.15;;;17.40;93.40;;;;;;5101857;28;20654;-42
2022/05/11 02:16:54;;;;;;;2.72;2.40;;;17.40;93.40;;;;;;5097627;28;20134;-41
2022/05/11 02:19:20;;;;;;;2.85;2.63;;;17.30;93.50;;;;;;5104994;28;20019;-46
2022/05/11 02:21:46;;;;;;;3.05;2.40;;;17.30;93.50;;;;;;5095143;28;20487;-41
2022/05/11 02:24:12;;;;;;;3.78;2.80;;;17.30;93.60;;;;;;5104655;28;20028;-40
2022/05/11 02:26:38;;;;;;;3.47;2.40;;;17.30;93.60;;;;;;5095328;28;20024;-42
2022/05/11 02:29:03;;;;;;;3.78;2.78;;;17.30;93.60;;;;;;5106289;28;20034;-42
2022/05/11 02:31:29;;;;;;;5.05;2.13;;;17.30;93.60;;;;;;5097177;28;20028;-42
2022/05/11 02:33:54;;;;;;;2.63;2.38;;;17.30;93.50;;;;;;5086739;28;20024;-41
2022/05/11 02:36:20;;;;;;;2.88;2.30;;;17.30;93.50;;;;;;5098712;28;20031;-42
2022/05/11 02:38:46;;;;;;;3.47;2.53;;;17.30;93.50;;;;;;5085614;28;20032;-41
2022/05/11 02:41:11;;;;;;;2.53;2.30;;;17.20;93.50;;;;;;5096959;28;20394;-42
2022/05/11 02:43:37;;;;;;;3.92;2.63;;;17.20;93.50;;;;;;5087539;28;20020;-42
2022/05/11 02:46:03;;;;;;;3.15;2.58;;;17.20;93.60;;;;;;5093717;28;20060;-39
2022/05/11 02:48:31;;;;;;;2.28;2.00;;;17.20;93.60;;;;;;5090119;28;20037;-41
2022/05/11 02:50:58;;;;;;;2.55;2.35;;;17.20;93.50;;;;;;5091885;28;20023;-42
2022/05/11 02:53:25;;;;;;;2.58;2.30;;;17.20;93.50;;;;;;5090966;28;20463;-42
2022/05/11 02:55:52;;;;;;;2.40;2.20;;;17.20;93.60;;;;;;5089475;28;20127;-41
2022/05/11 02:58:20;;;;;;;3.22;2.03;;;17.20;93.60;;;;;;5094543;28;20040;-42
2022/05/11 03:00:48;;;;;;;2.70;2.50;;;17.20;93.60;;;;;;5086253;28;20036;-43
2022/05/11 03:03:15;;;;;;;4.28;2.45;;;17.20;93.60;;;;;;5088241;28;20055;-40
2022/05/11 03:05:42;;;;;;;3.20;2.70;;;17.20;93.60;;;;;;5087685;28;20020;-41
2022/05/11 03:08:08;;;;;;;4.95;2.33;;;17.20;93.60;;;;;;5093762;28;20027;-41
2022/05/11 03:10:35;;;;;;;4.25;2.63;;;17.20;93.60;;;;;;5105122;28;20054;-41
2022/05/11 03:13:02;;;;;;;3.17;2.40;;;17.20;93.70;;;;;;5093296;28;20633;-41
2022/05/11 03:15:28;;;;;;;2.83;2.40;;;17.10;93.60;;;;;;5105568;28;20032;-41
2022/05/11 03:17:55;;;;;;;3.38;2.22;;;17.10;93.60;;;;;;5093110;28;20039;-43
2022/05/11 03:20:23;;;;;;;2.50;2.30;;;17.10;93.70;;;;;;5105133;28;20032;-42
2022/05/11 03:22:50;;;;;;;3.80;2.45;;;17.10;93.70;;;;;;5092523;28;20040;-43
2022/05/11 03:25:16;;;;;;;5.43;2.65;;;17.00;93.70;;;;;;5106036;28;20103;-43
2022/05/11 03:27:41;;;;;;;3.38;2.70;;;17.00;93.70;;;;;;5094534;28;20020;-42
2022/05/11 03:30:07;;;;;;;3.25;2.80;;;17.00;93.70;;;;;;5103945;28;20027;-44
2022/05/11 03:35:17;;;;;;;5.03;3.10;;;17.00;93.80;;;;;;5102437;28;20432;-42
2022/05/11 03:37:43;;;;;;;4.15;2.78;;;17.00;93.80;;;;;;5097724;28;20016;-42
2022/05/11 03:40:09;;;;;;;3.35;3.05;;;17.00;93.80;;;;;;5101009;28;20043;-42
2022/05/11 03:42:37;;;;;;;3.55;3.00;;;17.00;93.90;;;;;;5099004;28;20035;-38
2022/05/11 03:45:25;;;;;;;4.35;2.63;;;17.00;93.90;;;;;;5098420;28;20040;-41
2022/05/11 03:47:52;;;;;;;3.58;2.88;;;17.00;94.00;;;;;;5085862;28;20036;-41
2022/05/11 03:50:22;;;;;;;3.38;2.80;;;17.00;93.90;;;;;;5098914;28;20023;-41
2022/05/11 03:52:48;;;;;;;5.70;3.00;;;17.00;94.00;;;;;;5100628;28;20764;-42
2022/05/11 03:55:14;;;;;;;3.38;3.08;;;16.90;94.00;;;;;;5096332;28;20055;-41
2022/05/11 03:57:40;;;;;;;3.90;3.20;;;17.00;94.00;;;;;;5104157;28;20030;-43
2022/05/11 04:00:09;;;;;;;3.05;2.75;;;17.00;94.10;;;;;;5094411;28;20389;-39
2022/05/11 04:02:35;;;;;;;2.80;2.60;;;17.00;94.10;;;;;;5101699;28;20058;-41
2022/05/11 04:05:03;;;;;;;4.57;2.78;;;17.00;94.10;;;;;;5094169;28;20020;-42
2022/05/11 04:07:28;;;;;;;3.70;2.75;;;17.00;94.10;;;;;;5104394;28;20393;-42
2022/05/11 04:09:54;;;;;;;3.10;2.80;;;17.00;94.10;;;;;;5093086;28;20027;-44
2022/05/11 04:12:19;;;;;;;4.20;3.00;;;17.00;94.20;;;;;;5105876;28;20106;-43
2022/05/11 04:14:45;;;;;;;2.72;2.40;;;17.00;94.20;;;;;;5092136;28;20528;-43
2022/05/11 04:17:10;;;;;;;4.38;2.53;;;17.00;94.20;;;;;;5104872;28;20069;-42
2022/05/11 04:19:36;;;;;;;3.03;2.72;;;17.00;94.20;;;;;;5095718;28;20551;-42
2022/05/11 04:22:02;;;;;;;3.65;2.50;;;16.90;94.20;;;;;;5108446;28;20252;-46
2022/05/11 04:24:28;;;;;;;3.80;2.40;;;17.00;94.20;;;;;;5098732;28;20024;-41
2022/05/11 04:26:53;;;;;;;3.08;2.78;;;17.00;94.20;;;;;;5106062;28;20035;-42
2022/05/11 04:29:19;;;;;;;4.63;2.47;;;16.90;94.20;;;;;;5101462;28;20051;-39
2022/05/11 04:31:45;;;;;;;5.18;2.38;;;17.00;94.30;;;;;;5102117;28;20525;-43
2022/05/11 04:34:13;;;;;;;4.40;3.03;;;16.90;94.30;;;;;;5104732;28;20028;-42
2022/05/11 04:36:39;;;;;;;3.30;2.58;;;17.00;94.30;;;;;;5100491;28;20016;-41
2022/05/11 04:39:06;;;;;;;3.00;2.70;;;17.00;94.30;;;;;;5106528;28;20012;-41
2022/05/11 04:41:31;;;;;;;3.13;2.42;;;17.00;94.60;;;;;;5096947;28;20451;-39
2022/05/11 04:43:57;;;;;;;2.75;2.30;;;17.10;94.30;;;;;;5107570;28;20016;-40
2022/05/11 04:46:22;;;;;;;3.50;2.70;;;17.00;94.30;;;;;;5096326;28;20015;-41
2022/05/11 04:48:48;;;;;;;3.28;2.40;;;17.00;94.30;;;;;;5108074;28;21055;-40
2022/05/11 04:51:13;;;;;;;2.40;2.20;;;17.00;94.30;;;;;;5095540;28;20042;-39
2022/05/11 04:53:39;;;;;;;2.58;2.35;;;17.10;94.40;;;;;;5108079;28;20066;-42
2022/05/11 04:56:05;;;;;;;3.90;2.92;;;17.10;94.30;;;;;;5095666;28;20569;-41
2022/05/11 04:58:30;;;;;;;3.58;2.42;;;17.10;94.30;;;;;;5107946;28;20371;-38
2022/05/11 05:00:56;;;;;;;3.38;2.65;;;17.10;94.30;;;;;;5096775;28;20051;-40
2022/05/11 05:03:22;;;;;;;3.20;2.90;;;17.20;94.40;;;;;;5089331;28;20044;-43
2022/05/11 05:05:47;;;;;;;3.15;2.42;;;17.10;94.40;;;;;;5096400;28;20019;-41
2022/05/11 05:08:13;;;;;;;3.00;2.70;;;17.10;94.50;;;;;;5091427;28;20039;-41
2022/05/11 05:10:39;;;;;;;3.60;3.20;;;17.10;94.50;;;;;;5094126;28;20098;-38
2022/05/11 05:13:07;;;;;;;3.30;2.80;;;17.20;94.60;;;;;;5094020;28;20520;-41
2022/05/11 05:15:35;;;;;;;3.03;2.70;;;17.10;94.60;;;;;;5091597;28;20032;-41
2022/05/11 05:18:02;;;;;;;3.80;2.55;;;17.20;94.60;;;;;;5096130;28;20039;-41
2022/05/11 05:20:30;;;;;;;3.30;2.50;;;17.20;94.60;;;;;;5088046;28;20024;-41
2022/05/11 05:22:55;;;;;;;2.78;2.35;;;17.30;94.70;;;;;;5098543;28;20031;-41
2022/05/11 05:25:21;;;;;;;2.80;2.50;;;17.30;94.70;;;;;;5088790;28;20020;-41
2022/05/11 05:27:49;;;;;;;3.03;2.50;;;17.40;94.70;;;;;;5097885;28;20113;-42
2022/05/11 05:33:00;;;;;;;2.60;2.00;;;17.40;94.60;;;;;;5097804;28;20057;-41
2022/05/11 05:35:25;;;;;;;2.50;2.20;;;17.40;94.60;;;;;;5087236;28;20024;-41
2022/05/11 05:37:51;;;;;;;2.10;1.90;;;17.40;94.60;;;;;;5099006;28;20459;-42
2022/05/11 05:40:16;;;;;;;2.38;1.75;;;17.40;94.60;;;;;;5087456;28;20027;-41
2022/05/11 05:42:43;;;;;;;2.83;2.08;;;17.40;94.50;;;;;;5098600;28;20082;-39
2022/05/11 05:45:09;;;;;;;3.50;2.10;;;17.40;94.50;;;;;;5077726;28;20039;-41
2022/05/11 05:47:36;;;;;;;2.10;1.90;;;17.50;94.50;;;;;;5073801;28;20449;-43
2022/05/11 05:50:01;;;;;;;2.60;1.70;;;17.50;94.40;;;;;;5105990;28;20028;-42
2022/05/11 05:52:27;;;;;;;2.50;1.90;;;17.60;94.30;;;;;;5086190;28;20031;-42
2022/05/11 05:54:55;;;;;;;2.63;1.77;;;17.60;94.20;;;;;;5087980;28;20675;-43
2022/05/11 05:57:21;;;;;;;2.13;1.50;;;17.70;94.10;;;;;;5092986;28;20028;-42
2022/05/11 05:59:47;;;;;;;2.78;1.50;;;17.70;94.00;;;;;;5091029;28;20104;-41
2022/05/11 06:02:13;;;;;;;2.33;1.55;;;17.80;93.80;;;;;;5092797;28;20070;-41
2022/05/11 06:04:50;;;;;;;2.38;1.50;;;17.80;93.50;;;;;;5089881;28;20031;-40
2022/05/11 06:07:18;;;;;;;2.80;1.60;;;17.90;93.40;;;;;;5089152;28;20733;-41
2022/05/11 06:09:44;;;;;;;2.22;1.50;;;17.90;93.20;;;;;;5093406;28;20024;-41
2022/05/11 06:12:12;;;;;;;3.53;1.30;;;17.90;93.10;;;;;;5087016;28;20077;-42
2022/05/11 06:14:38;;;;;;;1.98;1.60;;;17.90;93.10;;;;;;5096954;28;20028;-42
2022/05/11 06:17:13;;;;;;;6.60;2.08;;;17.80;93.10;;;;;;5086000;28;20597;-41
2022/05/11 06:19:39;;;;;;;2.15;1.50;;;17.80;92.90;;;;;;5097664;28;20094;-42
2022/05/11 06:22:05;;;;;;;2.20;1.52;;;17.70;92.80;;;;;;5087293;28;20045;-41
2022/05/11 06:24:30;;;;;;;3.45;2.00;;;17.60;92.70;;;;;;5096343;28;20024;-41
2022/05/11 06:26:56;;;;;;;2.30;1.85;;;17.60;92.60;;;;;;5086815;28;20103;-40
2022/05/11 06:29:22;;;;;;;2.55;1.63;;;17.60;92.60;;;;;;5098627;28;20028;-41
2022/05/11 06:31:48;;;;;;;4.32;2.13;;;17.70;92.30;;;;;;5085279;28;20028;-42
2022/05/11 06:34:13;;;;;;;2.00;1.40;;;17.80;92.10;;;;;;5098538;28;20019;-40
2022/05/11 06:36:39;;;;;;;2.60;1.58;;;17.90;91.70;;;;;;5092272;28;20497;-41
2022/05/11 06:39:04;;;;;;;2.95;1.70;;;18.00;91.50;;;;;;5094292;28;20027;-41
2022/05/11 06:41:30;;;;;;;4.88;1.95;;;18.00;90.70;;;;;;5090363;28;20032;-41
2022/05/11 06:43:56;;;;;;;2.42;1.30;;;18.10;90.70;;;;;;5092592;28;20019;-40
2022/05/11 06:46:22;;;;;;;4.35;1.65;;;18.10;90.60;;;;;;5090808;28;20063;-41
2022/05/11 06:48:48;;;;;;;3.55;1.73;;;18.20;90.20;;;;;;5090740;28;20501;-42
2022/05/11 06:51:15;;;;;;;2.67;1.20;;;18.20;89.80;;;;;;5092670;28;20032;-41
2022/05/11 06:59:20;;;;;;;3.25;1.45;;;18.10;88.30;;;;;;5090577;28;20060;-41
2022/05/11 07:01:47;;;;;;;5.22;1.50;;;18.10;87.30;;;;;;5094045;28;20043;-41
2022/05/11 07:04:12;;;;;;;2.88;1.40;;;18.00;87.30;;;;;;5101606;28;20048;-41
2022/05/11 07:06:38;;;;;;;4.05;1.65;;;17.90;86.80;;;;;;5096573;28;20031;-40
2022/05/11 07:09:03;;;;;;;3.45;1.50;;;17.90;85.90;;;;;;5104167;28;20531;-42
2022/05/11 07:14:13;;;;;;;5.60;1.10;;;17.90;84.60;;;;;;5103652;28;20100;-42
2022/05/11 07:16:39;;;;;;;2.40;1.35;;;18.00;85.20;;;;;;5094123;28;20475;-42
2022/05/11 07:19:05;;;;;;;2.45;1.40;;;18.20;85.40;;;;;;5100020;28;20012;-42
2022/05/11 07:21:30;;;;;;;3.15;1.20;;;18.40;85.30;;;;;;5096127;28;20119;-44
2022/05/11 07:23:56;;;;;;;3.92;1.40;;;18.50;84.90;;;;;;5085835;28;20448;-42
2022/05/11 07:26:22;;;;;;;3.83;1.20;;;18.70;84.60;;;;;;5091190;28;20058;-42
2022/05/11 07:28:48;;;;;;;3.13;1.38;;;18.80;84.00;;;;;;5105352;28;20530;-42
2022/05/11 07:31:13;;;;;;;2.33;1.20;;;18.80;83.10;;;;;;5091595;28;20024;-42
2022/05/11 07:33:39;;;;;;;1.90;1.00;;;18.90;83.50;;;;;;5105434;28;20038;-43
2022/05/11 07:36:05;;;;;;;3.20;1.33;;;19.00;83.00;;;;;;5093741;28;20619;-41
2022/05/11 07:38:30;;;;;;;2.72;1.30;;;19.00;82.70;;;;;;5103866;28;20107;-42
2022/05/11 07:40:56;;;;;;;4.10;1.30;;;19.10;83.00;;;;;;5096079;28;20047;-43
2022/05/11 07:43:21;;;;;;;2.72;1.10;;;19.10;81.70;;;;;;5101484;28;20078;-41
2022/05/11 07:45:47;;;;;;;2.03;0.93;;;19.20;81.60;;;;;;5098785;28;20036;-42
2022/05/11 07:48:13;;;;;;;5.80;0.88;;;19.20;81.50;;;;;;5098171;28;20115;-40
2022/05/11 07:50:38;;;;;;;3.75;0.90;;;19.30;81.20;;;;;;5102006;28;20019;-42
2022/05/11 07:53:05;;;;;;;4.80;1.23;;;19.20;80.80;;;;;;5096324;28;20031;-40
2022/05/11 07:55:30;;;;;;;1.20;0.80;;;19.20;80.90;;;;;;5106804;28;20356;-41
2022/05/11 08:00:41;;;;;;;1.60;0.70;;;19.20;80.50;;;;;;5108095;28;20108;-41
2022/05/11 08:03:08;;;;;;;3.45;0.90;;;19.20;80.80;;;;;;5089030;28;20496;-42
2022/05/11 08:05:34;;;;;;;1.35;0.80;;;19.20;80.70;;;;;;5090002;28;20024;-42
2022/05/11 08:08:03;;;;;;;2.28;0.82;;;19.10;80.90;;;;;;5102671;28;20028;-43
2022/05/11 08:10:37;;;;;;;4.32;1.00;;;19.00;80.60;;;;;;5107684;28;20050;-41
2022/05/11 08:13:06;;;;;;;2.38;0.80;;;18.90;80.20;;;;;;5098168;28;20059;-41
2022/05/11 08:15:37;;;;;;;2.38;1.17;;;18.70;80.50;;;;;;5107415;28;20026;-41
2022/05/11 08:18:04;;;;;;;3.80;1.00;;;18.70;81.00;;;;;;5101146;28;20036;-40
2022/05/11 08:20:34;;;;;;;3.10;1.00;;;18.60;81.00;;;;;;5088733;28;20032;-42
2022/05/11 08:23:02;;;;;;;3.55;0.98;;;18.60;81.20;;;;;;5100588;28;20077;-42
2022/05/11 08:25:30;;;;;;;0.98;0.85;;;18.60;81.20;;;;;;5088623;28;20043;-41
2022/05/11 08:27:57;;;;;;;2.53;1.00;;;18.60;80.80;;;;;;5101540;28;20110;-44
2022/05/11 08:33:27;;;;;;;2.30;0.80;;;18.70;81.20;;;;;;5101991;28;20035;-41
2022/05/11 08:35:57;;;;;;;3.90;0.90;;;18.80;81.10;;;;;;5089435;28;20078;-43
2022/05/11 08:38:26;;;;;;;3.30;0.90;;;18.80;80.70;;;;;;5100657;28;20562;-43
2022/05/11 08:41:03;;;;;;;1.67;0.68;;;18.80;80.90;;;;;;5089167;28;20035;-42
2022/05/11 08:43:31;;;;;;;2.88;0.95;;;18.70;81.20;;;;;;5099621;28;20172;-41
2022/05/11 08:46:00;;;;;;;2.65;0.80;;;18.70;81.30;;;;;;5088621;28;20016;-42
2022/05/11 08:48:36;;;;;;;5.53;1.08;;;18.80;81.50;;;;;;5099071;28;20028;-40
2022/05/11 08:51:05;;;;;;;2.75;1.05;;;18.80;81.40;;;;;;5088577;28;20024;-42
2022/05/11 08:53:37;;;;;;;3.75;2.08;;;18.80;81.40;;;;;;5097906;28;20023;-43
2022/05/11 08:56:06;;;;;;;;;;;18.80;81.50;;;;;;5091030;28;20558;-42
2022/05/11 08:58:36;;;;;;;4.10;1.55;;;18.90;81.60;;;;;;5095648;28;20373;-42
2022/05/11 09:01:03;;;;;;;2.00;1.17;;;18.90;81.70;;;;;;5091760;28;20792;-40
2022/05/11 09:03:41;;;;;;;3.20;1.33;;;19.00;81.50;;;;;;5095286;28;20394;-42
2022/05/11 09:06:13;;;;;;;1.83;1.02;;;19.10;81.20;;;;;;5090443;28;20479;-41
2022/05/11 09:08:39;;;;;;;3.67;1.25;;;19.10;81.00;;;;;;5095100;28;20020;-42
2022/05/11 09:11:07;;;;;;;3.95;0.93;;;19.10;81.20;;;;;;5093576;28;20035;-41
2022/05/11 09:13:37;;;;;;;3.22;1.08;;;19.10;81.30;;;;;;5091047;28;20038;-42
2022/05/11 09:16:05;;;;;;;2.40;1.48;;;19.20;81.00;;;;;;5095777;28;20119;-42
2022/05/11 09:18:31;;;;;;;3.22;1.33;;;19.20;81.20;;;;;;5089168;28;20027;-41
2022/05/11 09:20:59;;;;;;;3.08;1.30;;;19.20;81.30;;;;;;5097705;28;20078;-41
2022/05/11 09:23:36;;;;;;;3.67;1.50;;;19.30;81.30;;;;;;5088181;28;20032;-41
2022/05/11 09:26:05;;;;;;;3.88;1.30;;;19.30;81.20;;;;;;5086608;28;20049;-42
2022/05/11 09:28:36;;;;;;;4.25;1.40;;;19.30;81.50;;;;;;5106112;28;20016;-42
2022/05/11 09:31:05;;;;;;;3.67;1.52;;;19.30;81.40;;;;;;5097171;28;20082;-42
2022/05/11 09:33:40;;;;;;;6.32;1.30;;;19.40;81.50;;;;;;5105662;28;20047;-41
2022/05/11 09:36:08;;;;;;;2.88;1.30;;;19.40;81.30;;;;;;5096599;28;20038;-42
2022/05/11 09:38:41;;;;;;;3.53;1.50;;;19.40;81.40;;;;;;5106311;28;20053;-42
2022/05/11 09:41:18;;;;;;;2.55;1.30;;;19.50;81.40;;;;;;5095719;28;20032;-42
2022/05/11 09:43:47;;;;;;;5.90;1.30;;;19.50;81.50;;;;;;5088247;28;20028;-44
2022/05/11 09:46:29;;;;;;;4.45;1.40;;;19.50;81.40;;;;;;5095009;28;20027;-43
2022/05/11 09:48:59;;;;;;;5.25;1.75;;;19.60;81.30;;;;;;5087964;28;20560;-43
2022/05/11 09:51:32;;;;;;;4.32;1.35;;;19.60;80.90;;;;;;5094890;28;20028;-41
2022/05/11 09:54:22;;;;;;;5.55;1.35;;;19.70;80.90;;;;;;5086702;28;20032;-43
2022/05/11 09:57:27;;;;;;;6.70;1.70;;;19.70;81.10;;;;;;5096855;28;20396;-41
2022/05/11 10:00:12;;;;;;;6.20;2.03;;;19.80;80.90;;;;;;5089376;28;20028;-42
2022/05/11 10:02:45;;;;;;;4.68;1.60;;;19.80;80.70;;;;;;5100956;28;20046;-42
2022/05/11 10:05:36;;;;;;;4.78;2.50;;;19.80;81.00;;;;;;5103297;28;20020;-41
2022/05/11 10:08:01;;;;;;;2.92;2.05;;;19.80;81.00;;;;;;5101460;28;20031;-42
2022/05/11 10:10:37;;;;;;;4.57;1.52;;;19.80;80.60;;;;;;5102029;28;20066;-42
2022/05/11 10:13:12;;;;;;;3.60;1.42;;;19.80;80.80;;;;;;5100478;28;20039;-43
2022/05/11 10:24:49;;;;;;;2.15;1.40;;;19.80;79.90;;;;;;5066811;28;20083;-42
2022/05/11 10:27:47;;;;;;;5.75;1.63;;;19.90;80.20;;;;;;5098485;28;20027;-42
2022/05/11 10:30:18;;;;;;;3.78;1.63;;;20.00;80.00;;;;;;5086170;28;20122;-43
2022/05/11 10:32:56;;;;;;;3.58;1.38;;;20.10;79.80;;;;;;5093855;28;20127;-42
2022/05/11 10:35:26;;;;;;;3.47;1.40;;;20.10;79.20;;;;;;5086652;28;20031;-41
2022/05/11 10:38:08;;;;;;;2.33;1.17;;;20.10;78.60;;;;;;5097390;28;20039;-42
2022/05/11 10:40:42;;;;;;;3.72;1.10;;;20.20;78.80;;;;;;5086700;28;20032;-43
2022/05/11 10:43:35;;;;;;;2.30;1.10;;;20.20;78.80;;;;;;5093922;28;20834;-41
2022/05/11 10:46:13;;;;;;;3.50;1.00;;;20.30;78.90;;;;;;5087947;28;20061;-43
2022/05/11 10:49:05;;;;;;;1.80;0.85;;;20.40;78.20;;;;;;5097400;28;20024;-42
2022/05/11 10:52:07;;;;;;;3.25;1.15;;;20.40;77.80;;;;;;5087433;28;20023;-43
2022/05/11 10:55:05;;;;;;;2.90;0.90;;;20.40;77.40;;;;;;5091189;28;20095;-43
2022/05/11 10:58:08;;;;;;;4.07;1.17;;;20.40;77.20;;;;;;5094042;28;20026;-42
2022/05/11 11:00:44;;;;;;;7.13;0.98;;;20.50;77.10;;;;;;5065028;28;20060;-39
2022/05/11 11:03:38;;;;;;;3.40;1.23;;;20.50;76.30;;;;;;5084922;28;20758;-41
2022/05/11 11:09:20;;;;;;;1.95;0.90;;;20.50;76.40;;;;;;5095718;28;20542;-43
2022/05/11 11:12:03;;;;;;;4.15;1.17;;;20.50;76.10;;;;;;5086444;28;20471;-42
2022/05/11 11:14:36;;;;;;;3.88;0.95;;;20.50;75.70;;;;;;5097177;28;20336;-42
2022/05/11 11:17:05;;;;;;;3.55;0.98;;;20.50;75.70;;;;;;5086955;28;20023;-42
2022/05/11 11:19:32;;;;;;;1.60;1.00;;;20.60;75.70;;;;;;5096224;28;20065;-41
2022/05/11 11:22:00;;;;;;;2.58;0.80;;;20.60;75.50;;;;;;5086762;28;20075;-42
2022/05/11 11:24:27;;;;;;;2.90;1.05;;;20.70;75.00;;;;;;5096675;28;20024;-42
2022/05/11 11:26:57;;;;;;;2.35;0.90;;;20.70;75.40;;;;;;5085380;28;20039;-42
2022/05/11 11:29:29;;;;;;;2.58;1.20;;;20.70;75.20;;;;;;5104854;28;20027;-42
2022/05/11 11:32:00;;;;;;;2.08;1.10;;;20.80;74.90;;;;;;5092700;28;20035;-44
2022/05/11 11:34:28;;;;;;;5.03;1.65;;;20.80;73.80;;;;;;5103466;28;20023;-42
2022/05/11 11:36:55;;;;;;;4.57;1.20;;;20.70;73.90;;;;;;5092612;28;20091;-43
2022/05/11 11:39:52;;;;;;;4.18;1.13;;;20.70;74.50;;;;;;5104149;28;20047;-41
2022/05/11 11:42:32;;;;;;;2.45;1.05;;;20.70;74.30;;;;;;5092270;28;20036;-42
2022/05/11 11:44:57;;;;;;;1.20;0.90;;;20.70;74.70;;;;;;5104724;28;20028;-40
2022/05/11 11:47:26;;;;;;;3.50;0.93;;;20.70;74.70;;;;;;5091583;28;20042;-43
2022/05/11 11:49:54;;;;;;;3.70;0.93;;;20.80;74.90;;;;;;5104850;28;20035;-40
2022/05/11 11:52:35;;;;;;;1.85;0.60;;;20.90;75.00;;;;;;5092547;28;20055;-43
2022/05/11 11:55:02;;;;;;;2.15;0.90;;;21.00;75.10;;;;;;5104265;28;20028;-40
2022/05/11 11:57:30;;;;;;;1.45;0.70;;;21.00;75.10;;;;;;5092132;28;20027;-42
2022/05/11 12:00:05;;;;;;;4.75;1.00;;;21.10;75.10;;;;;;5103928;28;20050;-42
2022/05/11 12:02:40;;;;;;;1.42;0.68;;;21.10;75.00;;;;;;5081555;28;20039;-43
2022/05/11 12:05:49;;;;;;;2.55;0.90;;;21.10;75.10;;;;;;5100558;28;20550;-43
2022/05/11 12:17:01;;;;;;;2.55;1.08;;;21.50;74.40;;;;;;5096044;28;20545;-42
2022/05/11 12:19:29;;;;;;;2.63;0.90;;;21.60;74.30;;;;;;5110015;28;20020;-43
2022/05/11 12:22:03;;;;;;;2.67;0.95;;;21.60;74.40;;;;;;5101067;28;20032;-42
2022/05/11 12:24:36;;;;;;;3.33;1.25;;;21.60;74.80;;;;;;5110129;28;20023;-42
2022/05/11 12:27:04;;;;;;;3.20;1.30;;;21.60;74.70;;;;;;5090846;28;20032;-45
2022/05/11 12:32:31;;;;;;;4.38;2.05;;;21.60;73.70;;;;;;5091193;28;20101;-43
2022/05/11 12:35:08;;;;;;;3.40;1.13;;;21.60;73.90;;;;;;5110681;28;20024;-42
2022/05/11 12:37:37;;;;;;;2.22;0.68;;;21.50;73.50;;;;;;5100698;28;20055;-44
2022/05/11 12:40:13;;;;;;;2.40;1.10;;;21.50;74.20;;;;;;5108407;28;20107;-43
2022/05/11 12:42:52;;;;;;;1.90;1.05;;;21.60;74.50;;;;;;5087733;28;20116;-43
2022/05/11 12:45:25;;;;;;;2.00;0.90;;;21.80;74.60;;;;;;5106816;28;20027;-44
2022/05/11 12:47:54;;;;;;;4.18;1.15;;;21.90;74.40;;;;;;5099134;28;20297;-42
2022/05/11 12:50:36;;;;;;;3.08;1.10;;;21.90;74.10;;;;;;5106129;28;20350;-42
2022/05/11 12:53:16;;;;;;;2.25;1.15;;;22.00;73.90;;;;;;5089257;28;20032;-43
2022/05/11 12:55:45;;;;;;;2.80;1.08;;;22.00;74.20;;;;;;5106208;28;20046;-43
2022/05/11 12:58:17;;;;;;;2.55;1.20;;;22.10;74.20;;;;;;5097954;28;20269;-42
2022/05/11 13:00:43;;;;;;;2.85;1.13;;;22.10;74.10;;;;;;5106989;28;20962;-43
2022/05/11 13:03:24;;;;;;;2.25;1.48;;;22.20;74.00;;;;;;5089508;28;20503;-42
2022/05/11 13:05:53;;;;;;;1.67;0.90;;;22.20;74.00;;;;;;5089065;28;20036;-43
2022/05/11 13:08:20;;;;;;;2.55;1.05;;;22.30;73.90;;;;;;5099073;28;20371;-43
2022/05/11 13:10:47;;;;;;;3.58;1.38;;;22.40;74.00;;;;;;5088877;28;20052;-42
2022/05/11 13:13:21;;;;;;;3.00;1.17;;;22.40;73.80;;;;;;5099541;28;20164;-45
2022/05/11 13:15:47;;;;;;;4.82;1.60;;;22.50;74.20;;;;;;5088352;28;20112;-42
2022/05/11 13:18:34;;;;;;;2.80;1.38;;;22.50;73.60;;;;;;5098526;28;20044;-44
2022/05/11 13:21:01;;;;;;;2.97;1.25;;;22.60;73.40;;;;;;5089149;28;20025;-41
2022/05/11 13:23:33;;;;;;;2.65;1.40;;;22.70;73.50;;;;;;5095440;28;20035;-43
2022/05/11 13:26:03;;;;;;;4.63;1.35;;;22.70;73.50;;;;;;5087096;28;20392;-43
2022/05/11 13:28:33;;;;;;;5.60;1.70;;;22.70;73.30;;;;;;5093631;28;20076;-43
2022/05/11 13:31:32;;;;;;;2.50;1.20;;;22.70;73.30;;;;;;5108423;28;20100;-42
2022/05/11 13:33:59;;;;;;;3.20;1.50;;;22.80;73.20;;;;;;5096219;28;20468;-32
2022/05/11 13:36:27;;;;;;;3.30;1.70;;;22.80;73.10;;;;;;5087548;28;20066;-42
2022/05/11 13:39:25;;;;;;;2.15;1.23;;;22.90;73.00;;;;;;5099238;28;20094;-45
2022/05/11 13:41:53;;;;;;;5.85;1.80;;;22.90;72.50;;;;;;5089340;28;20082;-42
2022/05/11 13:44:42;;;;;;;3.35;1.35;;;22.90;72.40;;;;;;5098960;28;20050;-41
2022/05/11 13:50:37;;;;;;;6.25;1.60;;;22.90;73.00;;;;;;5092300;28;20142;-42